createdAt,value
2022-12-03T00:01:58.915Z,3.7
2022-12-03T00:07:06.827Z,3.7
2022-12-03T00:12:14.766Z,3.6
2022-12-03T00:22:30.718Z,3.6
2022-12-03T00:27:38.634Z,3.6
2022-12-03T00:32:46.551Z,3.6
2022-12-03T00:37:54.527Z,3.6
2022-12-03T00:43:02.438Z,3.6
2022-12-03T00:53:18.371Z,3.6
2022-12-03T00:58:26.309Z,3.6
2022-12-03T01:03:34.265Z,3.6
2022-12-03T01:08:42.222Z,3.6
2022-12-03T01:13:50.144Z,3.5
2022-12-03T01:18:58.056Z,3.5
2022-12-03T01:29:13.995Z,3.5
2022-12-03T01:34:20.313Z,3.5
2022-12-03T01:39:26.686Z,3.5
2022-12-03T01:44:33.088Z,3.5
2022-12-03T01:49:39.407Z,3.5
2022-12-03T01:54:45.771Z,3.5
2022-12-03T01:59:53.134Z,3.5
2022-12-03T02:04:59.455Z,3.5
2022-12-03T02:10:06.829Z,3.5
2022-12-03T02:15:14.792Z,3.5
2022-12-03T02:20:22.709Z,3.5
2022-12-03T02:25:30.641Z,3.4
2022-12-03T02:30:38.619Z,3.4
2022-12-03T02:35:46.546Z,3.4
2022-12-03T02:40:54.506Z,3.4
2022-12-03T02:46:02.450Z,3.4
2022-12-03T02:56:18.328Z,3.4
2022-12-03T03:01:26.411Z,3.4
2022-12-03T03:06:34.233Z,3.4
2022-12-03T03:11:42.152Z,3.4
2022-12-03T03:16:50.209Z,3.4
2022-12-03T03:21:58.064Z,3.4
2022-12-03T03:27:06.002Z,3.4
2022-12-03T03:37:21.932Z,3.4
2022-12-03T03:42:29.834Z,3.4
2022-12-03T03:47:37.790Z,3.4
2022-12-03T03:52:45.778Z,3.4
2022-12-03T03:57:53.696Z,3.4
2022-12-03T04:03:01.635Z,3.4
2022-12-03T04:13:17.537Z,3.3
2022-12-03T04:18:23.850Z,3.3
2022-12-03T04:23:31.120Z,3.3
2022-12-03T04:28:36.635Z,3.3
2022-12-03T04:33:42.926Z,3.3
2022-12-03T04:38:49.287Z,3.3
2022-12-03T04:43:55.679Z,3.3
2022-12-03T04:49:03.600Z,3.3
2022-12-03T04:54:11.528Z,3.3
2022-12-03T04:59:19.500Z,3.3
2022-12-03T05:04:27.465Z,3.3
2022-12-03T05:09:35.385Z,3.3
2022-12-03T05:14:43.348Z,3.3
2022-12-03T05:19:51.302Z,3.3
2022-12-03T05:24:59.239Z,3.2
2022-12-03T05:30:07.206Z,3.2
2022-12-03T05:35:15.110Z,3.2
2022-12-03T05:40:23.054Z,3.2
2022-12-03T05:45:31.026Z,3.2
2022-12-03T05:50:38.947Z,3.2
2022-12-03T05:55:46.911Z,3.2
2022-12-03T06:06:02.815Z,3.2
2022-12-03T06:11:10.719Z,3.2
2022-12-03T06:21:26.647Z,3.2
2022-12-03T06:26:34.601Z,3.2
2022-12-03T06:31:42.655Z,3.1
2022-12-03T06:36:50.500Z,3.1
2022-12-03T06:41:58.409Z,3.1
2022-12-03T06:47:06.347Z,3.1
2022-12-03T06:52:14.323Z,3.1
2022-12-03T06:57:22.254Z,3.1
2022-12-03T07:02:30.271Z,3.1
2022-12-03T07:07:38.230Z,3.1
2022-12-03T07:12:46.082Z,3.1
2022-12-03T07:17:54.021Z,3.1
2022-12-03T07:23:02.022Z,3.1
2022-12-03T07:28:09.925Z,3.1
2022-12-03T07:33:17.873Z,3.1
2022-12-03T07:38:25.885Z,3.1
2022-12-03T07:43:33.768Z,3.1
2022-12-03T07:48:41.866Z,3.1
2022-12-03T07:53:49.704Z,3.1
2022-12-03T07:58:57.612Z,3.1
2022-12-03T08:04:05.542Z,3
2022-12-03T08:09:16.201Z,3
2022-12-03T08:14:21.437Z,3
2022-12-03T08:19:29.386Z,3
2022-12-03T08:24:37.354Z,3
2022-12-03T08:29:45.287Z,3
2022-12-03T08:34:53.399Z,3
2022-12-03T08:40:01.198Z,3
2022-12-03T08:45:09.112Z,3
2022-12-03T08:50:17.054Z,3
2022-12-03T08:55:25.035Z,3
2022-12-03T09:00:32.947Z,3
2022-12-03T09:05:40.894Z,3
2022-12-03T09:15:56.815Z,3
2022-12-03T09:21:04.714Z,3
2022-12-03T09:26:12.687Z,3
2022-12-03T09:31:20.688Z,3
2022-12-03T09:36:28.574Z,3
2022-12-03T09:41:36.544Z,3
2022-12-03T09:46:44.478Z,3
2022-12-03T09:51:52.397Z,3
2022-12-03T09:57:00.341Z,3
2022-12-03T10:02:08.404Z,3
2022-12-03T10:07:16.262Z,3.1
2022-12-03T10:12:24.206Z,3.1
2022-12-03T10:17:30.557Z,3.1
2022-12-03T10:22:38.482Z,3.1
2022-12-03T10:27:46.443Z,3.1
2022-12-03T10:32:54.415Z,3.1
2022-12-03T10:38:02.343Z,3.1
2022-12-03T10:43:10.265Z,3.1
2022-12-03T10:48:18.236Z,3.1
2022-12-03T10:53:26.159Z,3.1
2022-12-03T10:58:34.101Z,3.1
2022-12-03T11:03:42.166Z,3.1
2022-12-03T11:08:56.275Z,3.1
2022-12-03T11:19:05.921Z,3.1
2022-12-03T11:24:13.829Z,3.1
2022-12-03T11:34:29.740Z,3.2
2022-12-03T11:39:37.657Z,3.2
2022-12-03T11:44:45.608Z,3.2
2022-12-03T11:49:53.853Z,3.2
2022-12-03T11:55:01.492Z,3.2
2022-12-03T12:00:09.462Z,3.2
2022-12-03T12:05:17.427Z,3.2
2022-12-03T12:10:25.328Z,3.2
2022-12-03T12:15:33.272Z,3.2
2022-12-03T12:20:41.276Z,3.2
2022-12-03T12:25:53.978Z,3.2
2022-12-03T12:30:57.166Z,3.3
2022-12-03T12:36:05.112Z,3.3
2022-12-03T12:41:13.040Z,3.3
2022-12-03T12:51:28.923Z,3.3
2022-12-03T12:56:35.250Z,3.3
2022-12-03T13:01:41.860Z,3.3
2022-12-03T13:06:48.000Z,3.3
2022-12-03T13:11:55.929Z,3.3
2022-12-03T13:17:03.885Z,3.4
2022-12-03T13:22:11.841Z,3.4
2022-12-03T13:32:27.724Z,3.4
2022-12-03T13:37:35.684Z,3.4
2022-12-03T13:42:43.611Z,3.4
2022-12-03T13:47:51.550Z,3.4
2022-12-03T13:52:59.523Z,3.4
2022-12-03T13:58:07.446Z,3.4
2022-12-03T14:03:13.781Z,3.4
2022-12-03T14:08:21.879Z,3.5
2022-12-03T14:13:29.676Z,3.5
2022-12-03T14:18:37.623Z,3.5
2022-12-03T14:23:45.585Z,3.5
2022-12-03T14:28:53.512Z,3.5
2022-12-03T14:34:01.462Z,3.5
2022-12-03T14:44:17.369Z,3.5
2022-12-03T14:49:25.293Z,3.5
2022-12-03T14:54:33.259Z,3.5
2022-12-03T15:04:49.159Z,3.5
2022-12-03T15:09:55.837Z,3.5
2022-12-03T15:15:01.831Z,3.5
2022-12-03T15:20:08.242Z,3.5
2022-12-03T15:25:16.145Z,3.5
2022-12-03T15:30:24.098Z,3.5
2022-12-03T15:35:32.075Z,3.5
2022-12-03T15:40:39.976Z,3.5
2022-12-03T15:45:47.978Z,3.5
2022-12-03T15:50:55.886Z,3.5
2022-12-03T15:56:03.818Z,3.5
2022-12-03T16:01:11.833Z,3.5
2022-12-03T16:06:19.731Z,3.5
2022-12-03T16:11:27.647Z,3.5
2022-12-03T16:16:35.726Z,3.5
2022-12-03T16:21:43.571Z,3.5
2022-12-03T16:26:51.503Z,3.5
2022-12-03T16:31:59.417Z,3.5
2022-12-03T16:42:17.489Z,3.5
2022-12-03T16:47:23.282Z,3.5
2022-12-03T16:52:31.239Z,3.4
2022-12-03T16:57:39.201Z,3.4
2022-12-03T17:02:47.166Z,3.4
2022-12-03T17:07:55.120Z,3.4
2022-12-03T17:13:10.820Z,3.4
2022-12-03T17:18:10.953Z,3.4
2022-12-03T17:23:18.908Z,3.4
2022-12-03T17:28:26.852Z,3.4
2022-12-03T17:33:34.788Z,3.4
2022-12-03T17:38:42.733Z,3.4
2022-12-03T17:43:50.701Z,3.4
2022-12-03T17:54:06.569Z,3.4
2022-12-03T17:59:14.557Z,3.4
2022-12-03T18:14:38.393Z,3.4
2022-12-03T18:19:44.703Z,3.3
2022-12-03T18:24:52.254Z,3.3
2022-12-03T18:29:58.514Z,3.3
2022-12-03T18:35:04.791Z,3.3
2022-12-03T18:40:13.005Z,3.3
2022-12-03T18:45:17.530Z,3.3
2022-12-03T18:50:23.868Z,3.3
2022-12-03T18:55:30.221Z,3.3
2022-12-03T19:00:37.643Z,3.3
2022-12-03T19:05:43.918Z,3.3
2022-12-03T19:15:58.308Z,3.3
2022-12-03T19:21:04.605Z,3.3
2022-12-03T19:26:10.952Z,3.3
2022-12-03T19:31:17.372Z,3.3
2022-12-03T19:36:23.651Z,3.3
2022-12-03T19:41:30.012Z,3.3
2022-12-03T19:46:36.382Z,3.2
2022-12-03T19:51:42.723Z,3.2
2022-12-03T20:01:57.179Z,3.2
2022-12-03T20:07:04.973Z,3.2
2022-12-03T20:12:12.907Z,3.2
2022-12-03T20:17:20.878Z,3.2
2022-12-03T20:22:28.815Z,3.2
2022-12-03T20:27:36.750Z,3.2
2022-12-03T20:37:52.668Z,3.2
2022-12-03T20:42:59.014Z,3.2
2022-12-03T20:48:06.354Z,3.2
2022-12-03T20:53:25.196Z,3.2
2022-12-03T20:58:20.059Z,3.2
2022-12-03T21:03:26.428Z,3.2
2022-12-03T21:08:41.467Z,3.2
2022-12-03T21:18:50.257Z,3.1
2022-12-03T21:23:56.641Z,3.1
2022-12-03T21:29:02.965Z,3.1
2022-12-03T21:39:17.306Z,3.1
2022-12-03T21:44:23.649Z,3.1
2022-12-03T21:49:29.995Z,3.1
2022-12-03T21:54:36.391Z,3.1
2022-12-03T22:04:50.650Z,3.1
2022-12-03T22:15:05.974Z,3.1
2022-12-03T22:20:12.318Z,3.1
2022-12-03T22:25:18.664Z,3.1
2022-12-03T22:30:25.060Z,3.1
2022-12-03T22:35:32.393Z,3.1
2022-12-03T22:40:38.748Z,3.1
2022-12-03T22:45:45.116Z,3.1
2022-12-03T22:50:51.468Z,3.1
2022-12-03T22:55:57.810Z,3.1
2022-12-03T23:01:04.199Z,3.1
2022-12-03T23:06:10.534Z,3
2022-12-03T23:11:18.472Z,3
2022-12-03T23:26:40.742Z,3
2022-12-03T23:31:47.152Z,3
2022-12-03T23:36:53.441Z,3
2022-12-03T23:42:01.404Z,3
2022-12-03T23:47:07.735Z,3
2022-12-03T23:52:14.108Z,3
2022-12-03T23:57:20.479Z,3
